Weather at Borj El Arab International Airport

Public forecast

Using degrees Celsius for public forecast. Weather courtesy of forecast.io.

Current aviation weather report (METAR) for Borj El Arab International Airport

2024/05/28 03:00 (retrieved 1 hour ago)

HEBA 280300Z 20006KT 9999 SCT020 18/14 Q1012 NOSIG

Closest aviation forecast (TAF) to Borj El Arab International Airport

Forecast is more than 6 hours old.

Closest forecast is Erbil International Airport, 780.4 nm (1,445.3 km) ENE.

2024/05/27 18:03 (retrieved 10 hours ago)

TAF ORER 271700Z 2718/2818 23004KT 8000 NSC BECMG 2720/2722 VRB02KT